createdAt,value
2023-03-03T00:01:33.629Z,90.04
2023-03-03T00:04:02.344Z,90.75
2023-03-03T00:06:31.194Z,90.65
2023-03-03T00:08:59.935Z,90.49
2023-03-03T00:11:29.382Z,90.71
2023-03-03T00:13:58.569Z,90.19
2023-03-03T00:16:31.095Z,90.16
2023-03-03T00:19:00.185Z,90.16
2023-03-03T00:21:30.848Z,89.64
2023-03-03T00:24:18.697Z,89.72
2023-03-03T00:26:48.442Z,89.38
2023-03-03T00:29:37.897Z,89.72
2023-03-03T00:32:20.231Z,89.00
2023-03-03T00:34:49.054Z,88.97
2023-03-03T00:37:27.977Z,88.44
2023-03-03T00:40:01.747Z,88.13
2023-03-03T00:42:30.414Z,87.49
2023-03-03T00:44:59.517Z,87.63
2023-03-03T00:47:32.737Z,86.96
2023-03-03T00:50:31.262Z,87.79
2023-03-03T00:53:06.535Z,87.49
2023-03-03T00:55:36.207Z,86.68
2023-03-03T00:58:05.029Z,86.93
2023-03-03T01:00:34.288Z,86.80
2023-03-03T01:03:07.170Z,86.49
2023-03-03T01:05:36.083Z,86.85
2023-03-03T01:08:04.953Z,87.62
2023-03-03T01:10:37.265Z,88.41
2023-03-03T01:13:07.579Z,88.47
2023-03-03T01:15:41.024Z,88.64
2023-03-03T01:18:11.489Z,88.56
2023-03-03T01:20:40.514Z,88.28
2023-03-03T01:23:08.984Z,88.25
2023-03-03T01:25:38.160Z,88.43
2023-03-03T01:28:06.725Z,88.59
2023-03-03T01:30:36.767Z,87.85
2023-03-03T01:33:06.287Z,88.15
2023-03-03T01:35:41.163Z,88.38
2023-03-03T01:38:09.762Z,89.30
2023-03-03T01:40:38.617Z,89.22
2023-03-03T01:43:07.146Z,89.13
2023-03-03T01:45:47.348Z,89.01
2023-03-03T01:52:27.733Z,90.67
2023-03-03T01:54:58.962Z,91.20
2023-03-03T01:57:31.027Z,91.25
2023-03-03T02:00:01.010Z,91.95
2023-03-03T02:02:30.808Z,92.67
2023-03-03T02:04:59.464Z,93.32
2023-03-03T02:07:30.770Z,93.51
2023-03-03T02:10:01.541Z,93.34
2023-03-03T02:12:34.106Z,93.69
2023-03-03T02:15:03.008Z,93.29
2023-03-03T02:17:32.863Z,93.46
2023-03-03T02:20:05.562Z,93.65
2023-03-03T02:22:40.655Z,93.54
2023-03-03T02:25:13.174Z,93.77
2023-03-03T02:27:43.100Z,93.55
2023-03-03T02:30:18.795Z,93.53
2023-03-03T02:32:47.736Z,92.75
2023-03-03T02:35:41.054Z,93.52
2023-03-03T02:38:16.756Z,93.11
2023-03-03T02:40:49.371Z,94.18
2023-03-03T02:43:22.854Z,95.24
2023-03-03T02:45:51.360Z,95.38
2023-03-03T02:48:19.978Z,96.23
2023-03-03T02:50:49.496Z,97.03
2023-03-03T02:53:19.389Z,97.56
2023-03-03T02:55:48.344Z,97.30
2023-03-03T02:58:17.202Z,97.40
2023-03-03T03:00:48.625Z,97.86
2023-03-03T03:03:16.991Z,97.50
2023-03-03T03:05:45.940Z,96.91
2023-03-03T03:08:16.053Z,96.50
2023-03-03T03:10:45.076Z,96.08
2023-03-03T03:13:13.806Z,95.51
2023-03-03T03:16:19.817Z,96.07
2023-03-03T03:18:48.400Z,95.86
2023-03-03T03:21:16.873Z,96.56
2023-03-03T03:23:55.115Z,96.97
2023-03-03T03:26:23.887Z,97.09
2023-03-03T03:28:52.863Z,97.68
2023-03-03T03:31:23.437Z,97.70
2023-03-03T03:33:52.925Z,98.52
2023-03-03T03:36:21.918Z,98.80
2023-03-03T03:38:50.531Z,99.38
2023-03-03T03:41:19.291Z,98.67
2023-03-03T03:43:47.852Z,98.96
2023-03-03T03:46:16.665Z,99.18
2023-03-03T03:48:47.283Z,99.43
2023-03-03T03:51:15.932Z,99.12
2023-03-03T03:53:44.681Z,99.05
2023-03-03T03:56:13.425Z,98.63
2023-03-03T03:58:42.684Z,98.51
2023-03-03T04:01:11.643Z,98.23
2023-03-03T04:03:40.178Z,98.29
2023-03-03T04:06:10.572Z,98.21
2023-03-03T04:08:38.903Z,97.97
2023-03-03T04:11:07.579Z,97.88
2023-03-03T04:13:36.383Z,98.12
2023-03-03T04:16:06.404Z,98.23
2023-03-03T04:18:36.232Z,98.49
2023-03-03T04:21:04.601Z,98.67
2023-03-03T04:23:34.751Z,98.85
2023-03-03T04:26:03.126Z,99.83
2023-03-03T04:28:31.531Z,100.00
2023-03-03T04:35:13.735Z,99.55
2023-03-03T04:37:42.507Z,99.51
2023-03-03T04:40:13.106Z,98.76
2023-03-03T04:42:41.780Z,98.65
2023-03-03T04:45:11.219Z,98.05
2023-03-03T04:47:41.240Z,97.89
2023-03-03T04:50:12.940Z,97.91
2023-03-03T04:52:41.401Z,97.63
2023-03-03T04:55:14.396Z,97.77
2023-03-03T04:57:42.983Z,97.67
2023-03-03T05:00:13.659Z,98.04
2023-03-03T05:02:42.404Z,98.40
2023-03-03T05:05:11.539Z,98.85
2023-03-03T05:07:41.126Z,98.54
2023-03-03T05:10:10.781Z,99.25
2023-03-03T05:12:40.587Z,99.78
2023-03-03T05:15:14.881Z,100.00
2023-03-03T05:17:43.489Z,100.00
2023-03-03T05:20:14.192Z,100.00
2023-03-03T05:22:42.966Z,100.00
2023-03-03T05:25:15.650Z,100.00
2023-03-03T05:27:47.926Z,100.00
2023-03-03T05:30:16.453Z,100.00
2023-03-03T05:32:44.940Z,100.00
2023-03-03T05:35:13.290Z,100.00
2023-03-03T05:37:46.982Z,100.00
2023-03-03T05:40:16.517Z,100.00
2023-03-03T05:42:49.691Z,100.00
2023-03-03T05:45:20.553Z,100.00
2023-03-03T05:47:49.373Z,100.00
2023-03-03T05:50:19.127Z,100.00
2023-03-03T05:52:49.742Z,100.00
2023-03-03T05:55:33.394Z,100.00
2023-03-03T05:58:03.694Z,100.00
2023-03-03T06:00:32.115Z,100.00
2023-03-03T06:03:00.664Z,100.00
2023-03-03T06:05:32.248Z,100.00
2023-03-03T06:08:01.045Z,100.00
2023-03-03T06:10:31.820Z,100.00
2023-03-03T06:13:01.205Z,100.00
2023-03-03T06:15:31.504Z,100.00
2023-03-03T06:18:00.389Z,100.00
2023-03-03T06:20:29.370Z,100.00
2023-03-03T06:22:58.143Z,100.00
2023-03-03T06:25:26.892Z,100.00
2023-03-03T06:27:57.420Z,100.00
2023-03-03T06:30:27.312Z,99.50
2023-03-03T06:32:57.527Z,99.06
2023-03-03T06:35:25.917Z,99.10
2023-03-03T06:37:54.701Z,98.79
2023-03-03T06:40:23.211Z,98.52
2023-03-03T06:42:51.872Z,99.04
2023-03-03T06:45:21.087Z,100.00
2023-03-03T06:47:49.772Z,100.00
2023-03-03T06:50:20.634Z,99.37
2023-03-03T06:52:52.088Z,97.86
2023-03-03T06:55:24.463Z,97.62
2023-03-03T06:57:56.102Z,97.66
2023-03-03T07:00:31.078Z,96.10
2023-03-03T07:03:04.138Z,94.94
2023-03-03T07:05:34.619Z,93.51
2023-03-03T07:08:03.151Z,92.42
2023-03-03T07:10:33.365Z,92.66
2023-03-03T07:13:18.377Z,91.74
2023-03-03T07:15:47.287Z,92.03
2023-03-03T07:18:27.092Z,91.56
2023-03-03T07:20:57.432Z,91.02
2023-03-03T07:23:27.724Z,90.84
2023-03-03T07:25:56.901Z,90.85
2023-03-03T07:28:29.791Z,90.12
2023-03-03T07:30:59.830Z,88.37
2023-03-03T07:33:31.342Z,87.52
2023-03-03T07:36:05.255Z,86.63
2023-03-03T07:38:37.190Z,85.72
2023-03-03T07:41:07.885Z,85.30
2023-03-03T07:43:37.659Z,84.53
2023-03-03T07:46:28.121Z,83.61
2023-03-03T07:48:57.991Z,82.46
2023-03-03T07:51:31.994Z,81.67
2023-03-03T07:54:29.288Z,81.41
2023-03-03T07:56:59.514Z,81.58
2023-03-03T07:59:28.529Z,80.85
2023-03-03T08:01:58.532Z,79.16
2023-03-03T08:04:30.827Z,79.00
2023-03-03T08:07:02.601Z,78.99
2023-03-03T08:09:47.582Z,78.27
2023-03-03T08:12:39.445Z,77.72
2023-03-03T08:15:19.891Z,75.76
2023-03-03T08:17:49.021Z,75.86
2023-03-03T08:20:49.143Z,74.00
2023-03-03T08:23:20.402Z,72.67
2023-03-03T08:25:50.527Z,73.08
2023-03-03T08:28:20.129Z,72.36
2023-03-03T08:30:49.458Z,72.64
2023-03-03T08:33:18.588Z,72.08
2023-03-03T08:35:47.667Z,70.12
2023-03-03T08:38:19.709Z,68.78
2023-03-03T08:40:48.900Z,68.02
2023-03-03T08:43:21.849Z,66.22
2023-03-03T08:45:52.615Z,65.14
2023-03-03T08:48:21.983Z,63.24
2023-03-03T08:51:00.744Z,63.88
2023-03-03T08:53:34.080Z,61.46
2023-03-03T08:56:05.088Z,62.58
2023-03-03T08:58:35.870Z,61.57
2023-03-03T09:01:05.362Z,59.83
2023-03-03T09:03:34.116Z,58.54
2023-03-03T09:06:02.686Z,57.47
2023-03-03T09:08:32.796Z,54.48
2023-03-03T09:11:31.008Z,47.96
2023-03-03T09:14:04.766Z,43.32
2023-03-03T09:16:38.358Z,40.79
2023-03-03T09:19:18.382Z,39.98
2023-03-03T09:21:47.079Z,39.07
2023-03-03T09:24:26.174Z,38.45
2023-03-03T09:26:55.085Z,39.72
2023-03-03T09:29:29.411Z,40.96
2023-03-03T09:31:59.330Z,42.69
2023-03-03T09:34:36.995Z,41.27
2023-03-03T09:37:21.668Z,41.79
2023-03-03T09:39:52.787Z,42.29
2023-03-03T09:42:57.189Z,41.89
2023-03-03T09:45:42.980Z,43.00
2023-03-03T09:48:41.798Z,42.75
2023-03-03T09:51:21.227Z,42.56
2023-03-03T09:53:58.938Z,40.94
2023-03-03T09:56:34.360Z,39.39
2023-03-03T09:59:11.950Z,38.69
2023-03-03T10:01:49.327Z,38.78
2023-03-03T10:04:43.030Z,38.30
2023-03-03T10:07:26.281Z,39.73
2023-03-03T10:10:11.417Z,40.38
2023-03-03T10:12:46.462Z,41.53
2023-03-03T10:15:23.333Z,41.89
2023-03-03T10:18:05.778Z,42.31
2023-03-03T10:20:53.479Z,42.91
2023-03-03T10:23:26.461Z,41.03
2023-03-03T10:25:58.821Z,41.05
2023-03-03T10:29:05.416Z,38.70
2023-03-03T10:31:42.894Z,35.83
2023-03-03T10:34:23.625Z,31.97
2023-03-03T10:36:58.888Z,30.04
2023-03-03T10:39:39.980Z,28.49
2023-03-03T10:42:27.726Z,27.63
2023-03-03T10:45:05.634Z,27.58
2023-03-03T10:48:00.395Z,27.70
2023-03-03T10:50:34.252Z,30.30
2023-03-03T10:53:19.808Z,30.10
2023-03-03T10:55:57.797Z,29.47
2023-03-03T10:58:48.454Z,30.62
2023-03-03T11:01:26.003Z,30.41
2023-03-03T11:04:22.609Z,28.99
2023-03-03T11:06:54.589Z,29.55
2023-03-03T11:09:36.420Z,29.45
2023-03-03T11:12:16.945Z,31.22
2023-03-03T11:14:49.589Z,33.79
2023-03-03T11:17:24.088Z,36.42
2023-03-03T11:20:01.281Z,38.66
2023-03-03T11:22:36.398Z,39.33
2023-03-03T11:25:15.636Z,37.80
2023-03-03T11:28:13.942Z,36.77
2023-03-03T11:30:53.032Z,34.34
2023-03-03T11:33:31.542Z,31.45
2023-03-03T11:36:13.239Z,32.57
2023-03-03T11:38:53.550Z,34.83
2023-03-03T11:41:37.843Z,37.55
2023-03-03T11:44:20.689Z,39.99
2023-03-03T11:46:53.981Z,42.07
2023-03-03T11:49:28.147Z,43.02
2023-03-03T11:52:05.737Z,45.48
2023-03-03T11:54:39.095Z,45.08
2023-03-03T11:57:18.056Z,44.01
2023-03-03T11:59:52.364Z,43.91
2023-03-03T12:02:57.373Z,42.67
2023-03-03T12:05:42.940Z,42.21
2023-03-03T12:08:24.610Z,41.49
2023-03-03T12:10:59.830Z,42.40
2023-03-03T12:13:32.413Z,42.31
2023-03-03T12:16:06.683Z,44.32
2023-03-03T12:18:54.169Z,45.43
2023-03-03T12:21:45.308Z,45.30
2023-03-03T12:24:23.529Z,43.99
2023-03-03T12:26:57.375Z,45.13
2023-03-03T12:29:35.335Z,45.16
2023-03-03T12:32:15.396Z,44.68
2023-03-03T12:34:48.297Z,44.66
2023-03-03T12:37:32.392Z,44.78
2023-03-03T12:40:10.477Z,41.27
2023-03-03T12:42:55.178Z,42.94
2023-03-03T12:45:35.361Z,42.56
2023-03-03T12:48:10.383Z,40.42
2023-03-03T12:50:48.468Z,40.97
2023-03-03T12:53:29.937Z,41.30
2023-03-03T12:56:01.683Z,43.10
2023-03-03T12:58:45.179Z,41.83
2023-03-03T13:01:23.650Z,41.38
2023-03-03T13:03:59.614Z,42.50
2023-03-03T13:06:31.066Z,41.18
2023-03-03T13:09:32.959Z,40.95
2023-03-03T13:12:34.501Z,40.23
2023-03-03T13:15:12.506Z,39.27
2023-03-03T13:17:49.454Z,39.31
2023-03-03T13:20:24.493Z,39.03
2023-03-03T13:22:57.346Z,39.10
2023-03-03T13:25:40.579Z,38.85
2023-03-03T13:28:15.160Z,38.73
2023-03-03T13:30:49.945Z,39.58
2023-03-03T13:33:24.006Z,38.45
2023-03-03T13:35:58.716Z,39.81
2023-03-03T13:38:29.745Z,40.02
2023-03-03T13:41:07.191Z,38.69
2023-03-03T13:43:45.043Z,37.67
2023-03-03T13:46:17.838Z,38.16
2023-03-03T13:49:07.729Z,39.90
2023-03-03T13:51:44.004Z,38.95
2023-03-03T13:54:20.746Z,39.69
2023-03-03T13:57:20.341Z,38.19
2023-03-03T13:59:54.749Z,38.98
2023-03-03T14:02:46.334Z,40.73
2023-03-03T14:05:17.922Z,40.44
2023-03-03T14:07:51.689Z,38.00
2023-03-03T14:10:23.782Z,38.31
2023-03-03T14:12:59.544Z,36.11
2023-03-03T14:15:31.113Z,35.49
2023-03-03T14:18:20.491Z,34.59
2023-03-03T14:20:51.716Z,33.42
2023-03-03T14:23:23.080Z,32.01
2023-03-03T14:26:03.166Z,31.21
2023-03-03T14:28:40.439Z,30.90
2023-03-03T14:31:18.948Z,30.76
2023-03-03T14:33:57.864Z,31.66
2023-03-03T14:36:32.066Z,31.83
2023-03-03T14:39:01.141Z,34.63
2023-03-03T14:41:41.603Z,34.25
2023-03-03T14:44:30.172Z,33.52
2023-03-03T14:47:21.902Z,33.50
2023-03-03T14:49:51.339Z,33.42
2023-03-03T14:52:33.074Z,35.63
2023-03-03T14:55:05.442Z,38.02
2023-03-03T14:57:46.751Z,39.18
2023-03-03T15:00:36.954Z,38.55
2023-03-03T15:03:20.281Z,38.08
2023-03-03T15:05:53.219Z,37.97
2023-03-03T15:08:29.882Z,37.71
2023-03-03T15:11:15.824Z,37.94
2023-03-03T15:13:46.699Z,38.30
2023-03-03T15:16:21.090Z,37.08
2023-03-03T15:19:19.532Z,38.41
2023-03-03T15:21:56.661Z,41.83
2023-03-03T15:24:29.122Z,44.40
2023-03-03T15:27:04.790Z,46.23
2023-03-03T15:29:39.529Z,48.26
2023-03-03T15:32:14.763Z,49.35
2023-03-03T15:34:46.265Z,50.72
2023-03-03T15:37:30.073Z,51.88
2023-03-03T15:40:06.872Z,52.33
2023-03-03T15:42:39.799Z,53.78
2023-03-03T15:45:15.910Z,54.86
2023-03-03T15:48:29.710Z,56.71
2023-03-03T15:51:08.313Z,55.15
2023-03-03T15:53:57.443Z,56.63
2023-03-03T15:56:31.214Z,57.69
2023-03-03T15:59:32.610Z,58.25
2023-03-03T16:02:14.617Z,58.87
2023-03-03T16:04:53.338Z,59.14
2023-03-03T16:07:33.550Z,60.17
2023-03-03T16:10:12.464Z,60.62
2023-03-03T16:12:49.481Z,61.08
2023-03-03T16:15:27.910Z,61.86
2023-03-03T16:18:01.949Z,62.63
2023-03-03T16:20:32.321Z,63.44
2023-03-03T16:23:22.684Z,65.26
2023-03-03T16:26:11.342Z,65.67
2023-03-03T16:29:03.934Z,66.37
2023-03-03T16:31:36.850Z,66.78
2023-03-03T16:34:13.624Z,67.04
2023-03-03T16:36:54.001Z,67.57
2023-03-03T16:39:30.216Z,69.39
2023-03-03T16:42:03.569Z,69.67
2023-03-03T16:44:41.912Z,70.09
2023-03-03T16:47:20.873Z,70.32
2023-03-03T16:49:54.754Z,70.02
2023-03-03T16:52:27.766Z,71.26
2023-03-03T16:54:59.722Z,71.48
2023-03-03T16:57:34.741Z,70.82
2023-03-03T17:00:07.469Z,73.93
2023-03-03T17:03:15.948Z,74.69
2023-03-03T17:05:49.994Z,74.63
2023-03-03T17:08:43.344Z,74.15
2023-03-03T17:11:21.049Z,74.32
2023-03-03T17:14:00.402Z,74.04
2023-03-03T17:16:49.826Z,73.65
2023-03-03T17:19:34.493Z,74.13
2023-03-03T17:22:14.805Z,75.13
2023-03-03T17:24:50.349Z,76.04
2023-03-03T17:27:27.411Z,75.96
2023-03-03T17:30:07.302Z,74.93
2023-03-03T17:32:55.182Z,75.52
2023-03-03T17:35:47.100Z,75.55
2023-03-03T17:38:22.236Z,76.20
2023-03-03T17:40:59.646Z,75.79
2023-03-03T17:43:38.199Z,76.06
2023-03-03T17:46:17.191Z,76.54
2023-03-03T17:49:09.422Z,76.65
2023-03-03T17:52:02.572Z,77.48
2023-03-03T17:54:54.438Z,78.05
2023-03-03T17:57:37.044Z,77.94
2023-03-03T18:00:20.785Z,77.95
2023-03-03T18:03:17.776Z,78.88
2023-03-03T18:06:20.578Z,78.73
2023-03-03T18:09:13.259Z,80.64
2023-03-03T18:11:55.527Z,80.21
2023-03-03T18:14:52.806Z,80.55
2023-03-03T18:17:44.433Z,82.04
2023-03-03T18:21:03.783Z,83.28
2023-03-03T18:23:39.980Z,84.60
2023-03-03T18:26:37.934Z,85.94
2023-03-03T18:29:21.936Z,87.19
2023-03-03T18:32:20.029Z,86.50
2023-03-03T18:34:52.798Z,85.24
2023-03-03T18:37:46.688Z,85.19
2023-03-03T18:40:33.527Z,84.48
2023-03-03T18:43:40.972Z,85.40
2023-03-03T18:46:13.052Z,85.27
2023-03-03T18:48:51.030Z,85.92
2023-03-03T18:51:53.755Z,87.89
2023-03-03T18:54:30.986Z,88.18
2023-03-03T18:57:17.884Z,89.02
2023-03-03T19:00:16.133Z,90.05
2023-03-03T19:02:54.689Z,89.27
2023-03-03T19:05:24.816Z,88.76
2023-03-03T19:08:05.463Z,88.38
2023-03-03T19:10:53.175Z,88.59
2023-03-03T19:13:44.426Z,90.13
2023-03-03T19:16:13.458Z,89.36
2023-03-03T19:19:15.529Z,90.78
2023-03-03T19:21:45.177Z,92.07
2023-03-03T19:24:35.519Z,91.99
2023-03-03T19:27:31.199Z,91.85
2023-03-03T19:30:07.560Z,91.43
2023-03-03T19:32:50.332Z,90.92
2023-03-03T19:35:25.859Z,92.63
2023-03-03T19:38:00.523Z,93.31
2023-03-03T19:40:34.437Z,93.96
2023-03-03T19:43:11.653Z,94.26
2023-03-03T19:45:55.581Z,93.52
2023-03-03T19:48:29.159Z,93.08
2023-03-03T19:51:03.550Z,92.08
2023-03-03T19:53:36.737Z,91.12
2023-03-03T19:56:20.105Z,91.21
2023-03-03T19:59:13.993Z,90.77
2023-03-03T20:01:52.322Z,92.28
2023-03-03T20:04:35.809Z,92.14
2023-03-03T20:07:15.994Z,91.68
2023-03-03T20:09:52.695Z,91.96
2023-03-03T20:12:40.167Z,92.20
2023-03-03T20:15:12.585Z,92.94
2023-03-03T20:17:55.733Z,94.53
2023-03-03T20:21:06.324Z,95.50
2023-03-03T20:23:41.899Z,95.19
2023-03-03T20:26:17.360Z,95.66
2023-03-03T20:29:04.948Z,95.84
2023-03-03T20:31:37.677Z,95.46
2023-03-03T20:34:15.403Z,95.49
2023-03-03T20:36:53.888Z,94.21
2023-03-03T20:39:35.939Z,94.77
2023-03-03T20:42:11.009Z,94.54
2023-03-03T20:44:53.917Z,94.68
2023-03-03T20:47:30.314Z,94.60
2023-03-03T20:50:15.663Z,94.28
2023-03-03T20:52:54.419Z,95.26
2023-03-03T20:55:28.597Z,95.75
2023-03-03T20:58:05.734Z,95.21
2023-03-03T21:00:40.793Z,94.87
2023-03-03T21:03:15.011Z,94.58
2023-03-03T21:05:58.254Z,95.66
2023-03-03T21:08:45.351Z,95.98
2023-03-03T21:11:17.731Z,95.98
2023-03-03T21:13:47.662Z,95.61
2023-03-03T21:16:33.488Z,95.45
2023-03-03T21:19:03.489Z,94.64
2023-03-03T21:21:33.532Z,94.61
2023-03-03T21:24:02.290Z,94.42
2023-03-03T21:26:54.272Z,94.03
2023-03-03T21:29:27.943Z,94.01
2023-03-03T21:31:59.491Z,94.27
2023-03-03T21:34:34.879Z,94.34
2023-03-03T21:37:04.745Z,94.40
2023-03-03T21:39:37.594Z,95.44
2023-03-03T21:42:08.101Z,95.15
2023-03-03T21:44:42.112Z,94.78
2023-03-03T21:47:14.410Z,94.54
2023-03-03T21:49:46.482Z,95.33
2023-03-03T21:52:17.880Z,95.71
2023-03-03T21:54:46.503Z,95.23
2023-03-03T21:57:32.735Z,95.36
2023-03-03T22:00:01.732Z,94.90
2023-03-03T22:02:32.310Z,94.87
2023-03-03T22:05:02.638Z,94.04
2023-03-03T22:07:31.600Z,95.35
2023-03-03T22:10:03.365Z,96.48
2023-03-03T22:12:32.112Z,96.81
2023-03-03T22:15:01.068Z,95.91
2023-03-03T22:17:29.902Z,96.39
2023-03-03T22:19:59.967Z,96.60
2023-03-03T22:22:28.703Z,96.71
2023-03-03T22:24:57.415Z,96.58
2023-03-03T22:27:26.246Z,96.51
2023-03-03T22:29:54.972Z,96.71
2023-03-03T22:32:23.586Z,96.63
2023-03-03T22:34:52.254Z,96.89
2023-03-03T22:37:24.248Z,97.81
2023-03-03T22:39:55.196Z,98.06
2023-03-03T22:42:25.206Z,97.56
2023-03-03T22:44:53.625Z,97.90
2023-03-03T22:47:22.572Z,98.22
2023-03-03T22:49:51.263Z,98.18
2023-03-03T22:52:21.337Z,98.23
2023-03-03T22:54:50.009Z,99.07
2023-03-03T22:57:18.487Z,99.38
2023-03-03T22:59:47.056Z,99.44
2023-03-03T23:02:15.896Z,99.77
2023-03-03T23:04:44.812Z,99.82
2023-03-03T23:07:13.542Z,100.00
2023-03-03T23:09:43.517Z,100.00
2023-03-03T23:12:12.218Z,100.00
2023-03-03T23:14:44.122Z,100.00
2023-03-03T23:17:15.533Z,100.00
2023-03-03T23:19:44.328Z,100.00
2023-03-03T23:22:13.819Z,100.00
2023-03-03T23:24:46.460Z,99.49
2023-03-03T23:27:14.985Z,99.30
2023-03-03T23:29:43.351Z,98.28
2023-03-03T23:32:11.830Z,100.00
2023-03-03T23:34:40.397Z,100.00
2023-03-03T23:37:08.775Z,100.00
2023-03-03T23:39:37.219Z,100.00
2023-03-03T23:42:09.566Z,100.00
2023-03-03T23:44:38.347Z,100.00
2023-03-03T23:47:07.243Z,100.00
2023-03-03T23:49:36.278Z,100.00
2023-03-03T23:52:05.394Z,100.00
2023-03-03T23:54:36.414Z,100.00
2023-03-03T23:57:08.350Z,100.00
2023-03-03T23:59:37.198Z,100.00
